Time;durP1;ratioP1;P1;durP2;ratioP2;P2;SDS_P1;SDS_P2;PMS_P1;PMS_P2;Temp;Humidity;BMP_temperature;BMP_pressure;BME280_temperature;BME280_humidity;BME280_pressure;Samples;Min_cycle;Max_cycle;Signal;HPM_P1;HPM_P2
2022/04/14 00:00:13;;;;;;;8.13;3.17;;;;;;;11.11;77.61;96616.31;5013466;28;20041;-67
2022/04/14 00:02:38;;;;;;;8.02;3.72;;;;;;;11.03;77.96;96618.16;5018795;28;20122;-66
2022/04/14 00:05:05;;;;;;;8.02;4.00;;;;;;;10.68;80.39;96621.22;5004909;28;20264;-67
2022/04/14 00:07:30;;;;;;;7.88;3.90;;;;;;;10.54;81.70;96612.78;5007611;28;20041;-67
2022/04/14 00:09:56;;;;;;;8.63;3.50;;;;;;;10.17;84.75;96622.34;5010630;28;20048;-66
2022/04/14 00:12:21;;;;;;;8.60;3.47;;;;;;;9.99;84.11;96619.28;5008626;28;20171;-66
2022/04/14 00:14:47;;;;;;;7.32;3.20;;;;;;;9.93;83.70;96621.53;5010875;28;20042;-65
2022/04/14 00:17:12;;;;;;;6.18;3.60;;;;;;;9.76;85.17;96620.09;5003498;28;20042;-65
2022/04/14 00:19:39;;;;;;;8.27;4.07;;;;;;;9.67;88.93;96624.19;5009952;28;20184;-66
2022/04/14 00:22:04;;;;;;;10.95;3.55;;;;;;;9.52;87.69;96621.19;5005186;28;20086;-65
2022/04/14 00:24:29;;;;;;;7.88;3.38;;;;;;;9.55;87.77;96627.88;5011564;28;20482;-65
2022/04/14 00:26:55;;;;;;;5.93;3.38;;;;;;;9.54;89.05;96631.75;5005946;28;20034;-66
2022/04/14 00:29:20;;;;;;;5.95;3.10;;;;;;;9.57;89.43;96631.84;5006123;28;20033;-66
2022/04/14 00:31:46;;;;;;;8.30;4.43;;;;;;;9.66;89.61;96634.34;5009529;28;20096;-66
2022/04/14 00:34:11;;;;;;;5.90;3.20;;;;;;;9.75;89.75;96623.97;5004723;28;20038;-66
2022/04/14 00:36:36;;;;;;;4.65;2.75;;;;;;;9.88;89.36;96634.75;5011584;28;20099;-67
2022/04/14 00:39:02;;;;;;;7.90;3.20;;;;;;;10.06;88.53;96637.78;5019709;28;20417;-67
2022/04/14 00:41:27;;;;;;;8.55;3.17;;;;;;;10.20;87.49;96637.25;5006056;28;20107;-66
2022/04/14 00:43:54;;;;;;;8.13;4.07;;;;;;;10.24;86.87;96633.41;5010720;28;20045;-66
2022/04/14 00:46:20;;;;;;;5.57;3.53;;;;;;;10.26;86.30;96636.59;5003048;28;20065;-67
2022/04/14 00:48:48;;;;;;;6.55;3.70;;;;;;;10.36;86.25;96635.19;5009476;28;20061;-67
2022/04/14 00:51:13;;;;;;;5.10;3.45;;;;;;;10.36;85.93;96637.94;5005160;28;20041;-67
2022/04/14 00:53:40;;;;;;;6.18;3.78;;;;;;;10.19;86.00;96638.41;5008993;28;20360;-66
2022/04/14 00:56:06;;;;;;;5.97;3.92;;;;;;;9.83;88.25;96632.28;5003501;28;20095;-66
2022/04/14 00:58:33;;;;;;;6.47;3.60;;;;;;;9.56;89.80;96638.47;5010132;28;20065;-64
2022/04/14 01:01:00;;;;;;;7.90;3.60;;;;;;;9.46;90.92;96641.78;5008488;28;20045;-65
2022/04/14 01:03:26;;;;;;;6.53;2.70;;;;;;;9.50;91.14;96647.31;5004149;28;20132;-64
2022/04/14 01:05:52;;;;;;;9.07;3.40;;;;;;;9.54;91.54;96642.69;5009662;28;20152;-67
2022/04/14 01:08:19;;;;;;;7.82;3.15;;;;;;;9.65;91.90;96648.38;5009857;28;20076;-66
2022/04/14 01:10:49;;;;;;;4.82;3.35;;;;;;;9.74;90.69;96644.28;5009355;28;20037;-65
2022/04/14 01:13:18;;;;;;;12.50;4.57;;;;;;;9.73;90.57;96645.41;5004828;28;20037;-66
2022/04/14 01:15:45;;;;;;;12.02;4.55;;;;;;;9.77;90.95;96654.47;5008597;28;20080;-65
2022/04/14 01:18:11;;;;;;;11.70;4.57;;;;;;;9.80;89.96;96660.41;5003303;28;20122;-66
2022/04/14 01:20:38;;;;;;;12.05;4.93;;;;;;;9.70;88.20;96656.28;5008548;28;20038;-65
2022/04/14 01:23:06;;;;;;;7.00;4.35;;;;;;;9.55;89.39;96663.44;5005188;28;20116;-65
2022/04/14 01:25:32;;;;;;;7.78;4.53;;;;;;;9.48;90.18;96658.59;5009586;28;20041;-67
2022/04/14 01:27:58;;;;;;;9.30;4.57;;;;;;;9.44;90.86;96662.44;5008883;28;20161;-66
2022/04/14 01:30:23;;;;;;;9.73;4.60;;;;;;;9.36;90.67;96661.47;5002995;28;20588;-67
2022/04/14 01:32:49;;;;;;;10.45;5.45;;;;;;;9.36;92.51;96656.00;5023133;28;20042;-68
2022/04/14 01:35:15;;;;;;;10.70;4.07;;;;;;;9.31;90.74;96661.75;5006539;28;20069;-67
2022/04/14 01:37:41;;;;;;;8.40;4.32;;;;;;;9.37;92.15;96655.66;5008061;28;20046;-67
2022/04/14 01:40:07;;;;;;;12.77;5.30;;;;;;;9.48;91.03;96660.56;5004158;28;20049;-67
2022/04/14 01:42:33;;;;;;;7.60;4.82;;;;;;;9.44;90.93;96668.69;5008219;28;21524;-67
2022/04/14 01:44:58;;;;;;;8.38;4.43;;;;;;;9.35;90.89;96668.91;5007208;28;20049;-66
2022/04/14 01:47:24;;;;;;;10.15;4.00;;;;;;;9.33;90.83;96673.16;4992607;28;20173;-67
2022/04/14 01:49:49;;;;;;;8.18;4.75;;;;;;;9.22;92.13;96680.31;4998481;28;20042;-67
2022/04/14 01:52:15;;;;;;;9.80;4.50;;;;;;;9.10;93.44;96671.09;4994383;28;20517;-67
2022/04/14 01:54:40;;;;;;;7.90;4.72;;;;;;;8.89;96.55;96676.88;4998848;28;20161;-67
2022/04/14 01:57:06;;;;;;;6.68;4.53;;;;;;;8.84;97.42;96682.66;4994982;28;20102;-67
2022/04/14 01:59:31;;;;;;;8.02;4.85;;;;;;;8.82;94.84;96674.00;5000317;28;20756;-67
2022/04/14 02:01:56;;;;;;;8.07;4.63;;;;;;;8.84;96.09;96681.84;4999912;28;20044;-66
2022/04/14 02:04:22;;;;;;;8.80;4.32;;;;;;;8.84;95.69;96679.09;4996226;28;20708;-68
2022/04/14 02:06:47;;;;;;;10.60;4.97;;;;;;;8.86;95.88;96683.06;4998818;28;20034;-68
2022/04/14 02:09:13;;;;;;;21.38;4.93;;;;;;;8.86;95.64;96683.06;4994882;28;20038;-66
2022/04/14 02:11:38;;;;;;;12.77;5.88;;;;;;;8.60;97.51;96683.63;5000332;28;20049;-66
2022/04/14 02:14:03;;;;;;;9.50;5.10;;;;;;;8.61;98.52;96680.56;4997364;28;20068;-66
2022/04/14 02:16:29;;;;;;;8.20;4.80;;;;;;;8.69;98.52;96686.97;4997132;28;20100;-66
2022/04/14 02:18:54;;;;;;;7.93;4.68;;;;;;;8.82;98.46;96689.59;5000810;28;20049;-66
2022/04/14 02:21:20;;;;;;;7.93;4.53;;;;;;;8.95;97.47;96693.81;4994501;28;20038;-67
2022/04/14 02:23:45;;;;;;;11.07;4.90;;;;;;;9.05;96.29;96689.72;4998830;28;20104;-66
2022/04/14 02:26:10;;;;;;;8.57;4.63;;;;;;;9.11;95.93;96693.75;4993670;28;20062;-66
2022/04/14 02:28:36;;;;;;;7.80;4.43;;;;;;;8.99;94.15;96697.41;5019164;28;20043;-67
2022/04/14 02:31:01;;;;;;;7.50;4.35;;;;;;;9.05;95.20;96695.19;5019969;28;20047;-66
2022/04/14 02:33:27;;;;;;;6.55;4.22;;;;;;;9.12;94.31;96693.41;5009628;28;20049;-66
2022/04/14 02:35:52;;;;;;;9.63;4.32;;;;;;;9.05;93.77;96704.16;5022640;28;20033;-66
2022/04/14 02:38:18;;;;;;;7.85;4.18;;;;;;;9.02;94.11;96699.44;5015519;28;20049;-66
2022/04/14 02:40:44;;;;;;;8.00;4.60;;;;;;;9.00;94.21;96698.97;5000499;28;20045;-67
2022/04/14 02:43:09;;;;;;;9.25;4.32;;;;;;;8.95;95.59;96702.00;4994765;28;20523;-67
2022/04/14 02:45:35;;;;;;;10.10;4.80;;;;;;;8.93;95.04;96704.28;4999107;28;20046;-65
2022/04/14 02:48:00;;;;;;;7.60;4.43;;;;;;;8.91;95.67;96706.56;4999998;28;20132;-65
2022/04/14 02:50:26;;;;;;;8.07;4.85;;;;;;;8.85;96.07;96700.59;5008183;28;20081;-65
2022/04/14 02:52:54;;;;;;;7.65;4.50;;;;;;;8.78;95.55;96705.91;5016343;28;20045;-65
2022/04/14 02:55:20;;;;;;;9.38;4.65;;;;;;;8.48;96.36;96703.63;5004360;28;20103;-66
2022/04/14 02:57:46;;;;;;;7.45;4.63;;;;;;;8.16;98.91;96705.53;5015209;28;20045;-66
2022/04/14 03:00:12;;;;;;;7.80;5.13;;;;;;;7.92;100.00;96714.63;5003575;28;20033;-66
2022/04/14 03:02:39;;;;;;;10.05;5.90;;;;;;;7.80;100.00;96710.03;5011962;28;20169;-67
2022/04/14 03:05:05;;;;;;;7.90;4.70;;;;;;;7.77;100.00;96710.72;5011450;28;20045;-68
2022/04/14 03:07:32;;;;;;;11.02;4.68;;;;;;;7.94;100.00;96695.97;5017528;28;20562;-67
2022/04/14 03:09:57;;;;;;;10.75;5.13;;;;;;;8.14;100.00;96700.44;5014916;28;20073;-67
2022/04/14 03:12:22;;;;;;;9.02;5.00;;;;;;;8.23;100.00;96706.50;5005939;28;20077;-67
2022/04/14 03:14:49;;;;;;;9.50;4.80;;;;;;;8.34;100.00;96706.00;5019305;28;20052;-67
2022/04/14 03:17:14;;;;;;;10.95;4.65;;;;;;;8.27;100.00;96705.81;5013437;28;20473;-67
2022/04/14 03:19:39;;;;;;;9.00;5.07;;;;;;;8.26;100.00;96713.19;5020103;28;20133;-65
2022/04/14 03:22:05;;;;;;;10.38;4.68;;;;;;;8.23;100.00;96711.19;5020639;28;20052;-66
2022/04/14 03:24:30;;;;;;;13.10;5.30;;;;;;;8.24;100.00;96712.75;5016246;28;20042;-65
2022/04/14 03:26:56;;;;;;;7.72;4.22;;;;;;;8.23;100.00;96711.97;5021068;28;20057;-67
2022/04/14 03:29:21;;;;;;;7.68;4.53;;;;;;;8.07;99.77;96710.34;5000744;28;20264;-67
2022/04/14 03:31:47;;;;;;;11.60;4.50;;;;;;;7.82;100.00;96713.22;5026165;28;20052;-65
2022/04/14 03:34:12;;;;;;;8.73;4.80;;;;;;;7.61;100.00;96718.84;5001397;28;20038;-66
2022/04/14 03:36:37;;;;;;;9.75;5.18;;;;;;;7.41;100.00;96718.69;5004328;28;20045;-66
2022/04/14 03:39:04;;;;;;;10.27;5.95;;;;;;;7.11;100.00;96720.91;5012061;28;20048;-66
2022/04/14 03:41:29;;;;;;;8.02;5.13;;;;;;;7.04;100.00;96717.97;5017807;28;20489;-65
2022/04/14 03:43:55;;;;;;;9.65;4.72;;;;;;;6.98;100.00;96727.53;5022198;28;20072;-65
2022/04/14 03:46:20;;;;;;;11.10;4.80;;;;;;;6.83;100.00;96724.34;5008294;28;20041;-65
2022/04/14 03:48:46;;;;;;;7.55;5.38;;;;;;;6.73;100.00;96722.09;5022784;28;20065;-65
2022/04/14 03:51:14;;;;;;;12.10;6.43;;;;;;;6.92;100.00;96724.25;5017269;28;20049;-65
2022/04/14 03:53:41;;;;;;;9.38;4.47;;;;;;;7.00;100.00;96734.22;5020643;28;20042;-66
2022/04/14 03:56:06;;;;;;;11.25;4.55;;;;;;;7.14;100.00;96727.63;5014360;28;20124;-66
2022/04/14 03:58:31;;;;;;;10.15;5.10;;;;;;;7.33;100.00;96730.53;5038196;28;20049;-66
2022/04/14 04:00:57;;;;;;;6.07;4.25;;;;;;;7.45;100.00;96726.97;5025546;28;20038;-65
2022/04/14 04:03:22;;;;;;;10.60;4.22;;;;;;;7.56;100.00;96738.19;5023822;28;21062;-65
2022/04/14 04:05:48;;;;;;;5.30;3.88;;;;;;;7.61;100.00;96741.44;5039336;22;20849;-67
2022/04/14 04:08:13;;;;;;;6.72;4.32;;;;;;;7.61;100.00;96736.00;4956329;28;20074;-63
2022/04/14 04:10:39;;;;;;;7.70;4.55;;;;;;;7.47;100.00;96732.88;4952929;28;20549;-64
2022/04/14 04:13:04;;;;;;;10.77;4.65;;;;;;;7.38;100.00;96734.94;4954425;28;20103;-63
2022/04/14 04:15:30;;;;;;;9.30;4.45;;;;;;;7.25;100.00;96736.91;4953182;28;20046;-65
2022/04/14 04:17:56;;;;;;;8.32;4.70;;;;;;;7.29;100.00;96737.78;4956848;28;20106;-66
2022/04/14 04:20:21;;;;;;;7.97;4.97;;;;;;;7.33;100.00;96735.16;4959395;28;20405;-66
2022/04/14 04:22:47;;;;;;;14.63;5.18;;;;;;;7.35;100.00;96749.28;4959126;28;20046;-65
2022/04/14 04:25:12;;;;;;;7.82;4.05;;;;;;;7.33;100.00;96749.59;4960992;28;20472;-65
2022/04/14 04:27:38;;;;;;;8.38;4.57;;;;;;;7.20;100.00;96748.03;4968524;28;20042;-66
2022/04/14 04:30:05;;;;;;;16.42;4.80;;;;;;;7.30;100.00;96749.50;4973967;28;20039;-62
2022/04/14 04:32:33;;;;;;;8.10;4.00;;;;;;;7.37;100.00;96752.44;4965481;28;20051;-66
2022/04/14 04:35:03;;;;;;;6.10;3.97;;;;;;;7.13;100.00;96755.97;4969767;28;20097;-64
2022/04/14 04:37:28;;;;;;;;;;;;;;;7.04;100.00;96754.19;4950735;28;20047;-65
2022/04/14 04:39:54;;;;;;;6.82;3.85;;;;;;;7.02;100.00;96755.66;4957358;28;20042;-68
2022/04/14 04:42:19;;;;;;;6.35;4.28;;;;;;;7.03;100.00;96755.31;4949818;28;20038;-67
2022/04/14 04:44:44;;;;;;;8.70;3.88;;;;;;;6.98;100.00;96752.81;4964860;28;20112;-66
2022/04/14 04:47:10;;;;;;;8.98;4.20;;;;;;;6.85;100.00;96767.59;4958644;28;20038;-68
2022/04/14 04:49:35;;;;;;;7.00;3.75;;;;;;;6.72;100.00;96769.50;4961902;28;20571;-67
2022/04/14 04:52:01;;;;;;;10.32;4.57;;;;;;;6.63;100.00;96779.72;4965622;28;20051;-66
2022/04/14 04:54:27;;;;;;;7.15;4.88;;;;;;;6.61;100.00;96782.78;4953097;28;20047;-65
2022/04/14 04:56:52;;;;;;;6.68;4.32;;;;;;;6.79;100.00;96782.53;4977044;28;20098;-66
2022/04/14 04:59:17;;;;;;;6.30;4.35;;;;;;;7.04;100.00;96775.97;4957790;28;20050;-68
2022/04/14 05:01:43;;;;;;;10.07;4.68;;;;;;;7.17;100.00;96782.22;4961510;28;20043;-66
2022/04/14 05:04:11;;;;;;;12.45;4.53;;;;;;;7.19;100.00;96779.16;4954029;28;20124;-68
2022/04/14 05:06:39;;;;;;;9.90;4.00;;;;;;;7.36;100.00;96786.25;4952574;28;20121;-66
2022/04/14 05:09:06;;;;;;;8.95;4.28;;;;;;;7.63;100.00;96782.00;4951005;28;20039;-61
2022/04/14 05:11:31;;;;;;;6.97;4.18;;;;;;;7.90;100.00;96782.38;4962718;28;20054;-65
2022/04/14 05:13:56;;;;;;;7.60;4.40;;;;;;;8.04;100.00;96788.22;4956889;28;20043;-68
2022/04/14 05:16:22;;;;;;;9.05;4.05;;;;;;;8.15;99.90;96789.28;4954261;28;20495;-66
2022/04/14 05:18:48;;;;;;;7.20;4.57;;;;;;;8.26;100.00;96783.34;4954507;28;20085;-67
2022/04/14 05:21:14;;;;;;;10.02;3.63;;;;;;;8.51;99.24;96787.53;4957928;28;20052;-66
2022/04/14 05:23:40;;;;;;;8.63;3.90;;;;;;;8.89;96.09;96791.59;4958534;28;20052;-67
2022/04/14 05:26:06;;;;;;;7.55;4.38;;;;;;;8.73;97.03;96799.81;4952190;28;20053;-65
2022/04/14 05:28:31;;;;;;;5.57;3.63;;;;;;;9.12;95.19;96801.91;4963596;28;20046;-66
2022/04/14 05:31:15;;;;;;;6.63;3.13;;;;;;;9.59;92.92;96803.75;4958057;28;20043;-68
2022/04/14 05:33:40;;;;;;;7.03;3.42;;;;;;;10.11;88.50;96802.47;4960451;28;20050;-65
2022/04/14 05:36:06;;;;;;;6.90;3.70;;;;;;;10.00;87.82;96808.91;4957021;28;20042;-67
2022/04/14 05:38:32;;;;;;;7.53;4.30;;;;;;;9.68;88.64;96801.59;4963965;28;20628;-67
2022/04/14 05:40:57;;;;;;;9.77;4.28;;;;;;;8.44;97.62;96801.00;4985590;28;20039;-67
2022/04/14 05:43:25;;;;;;;11.00;5.07;;;;;;;7.66;100.00;96806.63;4966316;28;20457;-68
2022/04/14 05:45:50;;;;;;;7.63;4.70;;;;;;;7.59;100.00;96806.41;4976524;28;20070;-67
2022/04/14 05:48:17;;;;;;;11.75;4.70;;;;;;;8.02;100.00;96812.31;4964157;28;20043;-66
2022/04/14 05:50:44;;;;;;;8.85;4.38;;;;;;;8.29;100.00;96802.53;4982883;28;20086;-66
2022/04/14 05:53:11;;;;;;;8.05;4.63;;;;;;;8.75;100.00;96813.09;4953798;28;20077;-65
2022/04/14 05:55:37;;;;;;;8.43;4.72;;;;;;;9.51;98.19;96810.22;4977590;28;20179;-66
2022/04/14 05:58:03;;;;;;;10.52;4.13;;;;;;;10.75;88.66;96813.09;4959796;28;20042;-63
2022/04/14 06:00:34;;;;;;;5.50;3.67;;;;;;;11.24;82.45;96809.56;4969302;28;20050;-65
2022/04/14 06:02:59;;;;;;;13.30;6.78;;;;;;;10.70;84.96;96813.38;4968446;28;20046;-64
2022/04/14 06:05:29;;;;;;;15.50;5.85;;;;;;;10.60;86.26;96811.22;4958129;28;20411;-65
2022/04/14 06:07:55;;;;;;;7.80;4.40;;;;;;;11.12;84.95;96820.72;4964444;28;20487;-66
2022/04/14 06:10:22;;;;;;;7.57;4.50;;;;;;;12.60;79.61;96818.00;4948833;28;20061;-66
2022/04/14 06:12:49;;;;;;;14.35;5.03;;;;;;;13.61;73.94;96813.34;4954425;28;20097;-66
2022/04/14 06:15:15;;;;;;;17.63;15.45;;;;;;;12.78;74.26;96821.72;4969430;28;20047;-65
2022/04/14 06:17:42;;;;;;;15.63;4.45;;;;;;;12.16;76.88;96821.44;4953107;28;20074;-65
2022/04/14 06:20:08;;;;;;;18.88;7.28;;;;;;;12.11;79.59;96819.78;4960868;28;20065;-66
2022/04/14 06:22:41;;;;;;;16.98;11.00;;;;;;;12.23;78.53;96824.28;4972345;28;20046;-67
2022/04/14 06:25:12;;;;;;;15.95;7.97;;;;;;;13.38;75.53;96817.91;4941423;28;20039;-63
2022/04/14 06:27:42;;;;;;;14.02;4.80;;;;;;;13.61;74.70;96821.59;4957730;28;20081;-66
2022/04/14 06:30:12;;;;;;;20.90;6.50;;;;;;;14.45;71.37;96821.59;4937471;28;20059;-63
2022/04/14 06:32:42;;;;;;;28.33;15.23;;;;;;;15.77;65.73;96820.13;4942305;28;20047;-66
2022/04/14 06:35:12;;;;;;;16.15;6.82;;;;;;;16.69;60.51;96818.22;4936171;28;20099;-66
2022/04/14 06:37:38;;;;;;;29.35;24.00;;;;;;;15.38;62.59;96820.97;4949744;28;20055;-67
2022/04/14 06:40:03;;;;;;;41.90;26.20;;;;;;;15.57;64.35;96830.78;4962710;28;20419;-62
2022/04/14 06:42:29;;;;;;;24.63;15.23;;;;;;;15.60;64.63;96827.25;4932906;28;20397;-66
2022/04/14 06:45:00;;;;;;;9.73;5.82;;;;;;;15.84;63.01;96823.66;4951837;28;20043;-67
2022/04/14 06:47:26;;;;;;;14.32;6.47;;;;;;;16.19;60.58;96815.69;4968318;28;20050;-64
2022/04/14 06:49:52;;;;;;;10.23;5.30;;;;;;;17.70;58.20;96811.88;4964550;28;20113;-67
2022/04/14 06:52:18;;;;;;;7.47;3.63;;;;;;;18.70;52.97;96821.03;4974446;28;20072;-64
2022/04/14 06:54:44;;;;;;;7.95;3.40;;;;;;;19.26;50.58;96826.19;4962898;28;20054;-65
2022/04/14 06:57:09;;;;;;;8.60;5.40;;;;;;;19.12;48.65;96823.63;4963808;28;20134;-66
2022/04/14 06:59:35;;;;;;;10.32;4.32;;;;;;;21.03;45.25;96834.75;4977169;28;20050;-68
2022/04/14 07:02:00;;;;;;;9.63;3.90;;;;;;;22.44;41.61;96818.84;4975752;28;20043;-67
2022/04/14 07:04:27;;;;;;;8.13;3.60;;;;;;;23.50;37.99;96821.59;4956760;28;20109;-65
2022/04/14 07:06:52;;;;;;;7.47;3.42;;;;;;;23.91;38.06;96828.19;4963234;28;20389;-68
2022/04/14 07:09:18;;;;;;;13.23;3.80;;;;;;;24.12;37.36;96825.91;4953251;28;20043;-66
2022/04/14 07:11:44;;;;;;;9.15;3.47;;;;;;;24.32;34.74;96825.56;4951007;28;20527;-67
2022/04/14 07:14:09;;;;;;;8.25;3.78;;;;;;;25.26;34.80;96834.84;4954364;28;20038;-67
2022/04/14 07:16:34;;;;;;;8.10;3.88;;;;;;;26.02;33.07;96826.94;4952558;28;20511;-68
2022/04/14 07:19:00;;;;;;;5.53;3.38;;;;;;;25.17;33.78;96831.97;4975320;28;20042;-69
2022/04/14 07:21:25;;;;;;;7.47;3.60;;;;;;;22.87;37.50;96825.94;4956554;28;20046;-69
2022/04/14 07:23:51;;;;;;;10.75;4.30;;;;;;;22.13;39.97;96824.88;4957319;28;20045;-67
2022/04/14 07:26:17;;;;;;;7.13;3.85;;;;;;;23.50;37.53;96837.56;4946786;28;20050;-67
2022/04/14 07:28:42;;;;;;;9.13;3.45;;;;;;;24.94;34.85;96831.28;4960268;28;20047;-68
2022/04/14 07:31:08;;;;;;;10.85;3.38;;;;;;;25.32;33.21;96837.84;4955721;28;20050;-68
2022/04/14 07:33:34;;;;;;;9.00;3.38;;;;;;;25.35;34.21;96834.88;4959964;28;20050;-70
2022/04/14 07:35:59;;;;;;;11.75;3.25;;;;;;;26.32;32.25;96846.88;4960506;28;20043;-68
2022/04/14 07:38:25;;;;;;;7.85;3.22;;;;;;;25.17;33.53;96840.38;4947020;28;20055;-69
2022/04/14 07:40:50;;;;;;;7.03;3.58;;;;;;;24.62;35.12;96846.50;4939750;28;20071;-69
2022/04/14 07:43:16;;;;;;;13.52;3.25;;;;;;;23.45;37.16;96844.50;4929126;28;20078;-69
2022/04/14 07:45:45;;;;;;;12.05;3.85;;;;;;;23.66;36.48;96843.03;4953384;28;20448;-69
2022/04/14 07:48:11;;;;;;;12.93;4.20;;;;;;;22.31;39.89;96843.91;4934831;28;20141;-69
2022/04/14 07:50:37;;;;;;;8.38;3.63;;;;;;;22.87;39.73;96842.69;4944081;28;20051;-70
2022/04/14 07:53:02;;;;;;;9.82;4.25;;;;;;;22.85;40.23;96845.13;4953478;28;20086;-69
2022/04/14 07:55:33;;;;;;;14.52;4.93;;;;;;;20.36;44.95;96852.44;4936251;28;20484;-72
2022/04/14 07:58:06;;;;;;;12.85;5.03;;;;;;;21.51;43.40;96853.50;4958618;28;20056;-69
2022/04/14 08:00:33;;;;;;;14.35;5.35;;;;;;;20.99;44.74;96848.75;4943561;28;20122;-69
2022/04/14 08:03:00;;;;;;;14.60;6.50;;;;;;;20.91;45.28;96858.50;4937523;28;20098;-68
2022/04/14 08:05:39;;;;;;;13.13;5.07;;;;;;;20.91;45.13;96859.28;4938755;28;20039;-70
2022/04/14 08:08:07;;;;;;;10.23;5.25;;;;;;;20.65;46.17;96860.22;4941081;28;20455;-67
2022/04/14 08:10:33;;;;;;;10.68;5.47;;;;;;;21.04;45.21;96859.38;4952562;28;20039;-69
2022/04/14 08:12:59;;;;;;;10.80;4.60;;;;;;;22.18;42.62;96865.38;4972664;28;20082;-69
2022/04/14 08:15:25;;;;;;;10.25;4.78;;;;;;;22.55;41.89;96871.56;4965378;28;20043;-68
2022/04/14 08:17:51;;;;;;;8.52;4.55;;;;;;;23.13;41.22;96865.09;4956308;28;20120;-69
2022/04/14 08:20:17;;;;;;;11.98;4.32;;;;;;;24.24;38.58;96862.22;4942683;28;20460;-67
2022/04/14 08:22:43;;;;;;;11.25;4.35;;;;;;;24.07;38.68;96869.22;4960362;28;20043;-67
2022/04/14 08:25:09;;;;;;;8.90;4.75;;;;;;;24.81;36.76;96861.38;4939120;28;20066;-66
2022/04/14 08:27:35;;;;;;;15.25;4.20;;;;;;;25.32;36.28;96869.44;4943999;28;20043;-69
2022/04/14 08:30:00;;;;;;;11.80;4.88;;;;;;;24.99;36.22;96864.28;4943397;28;20050;-68
2022/04/14 08:32:26;;;;;;;10.52;4.10;;;;;;;24.69;37.27;96857.44;4939674;28;20054;-68
2022/04/14 08:34:51;;;;;;;12.40;5.03;;;;;;;24.49;37.61;96862.53;4945820;28;20051;-67
2022/04/14 08:37:17;;;;;;;10.95;4.65;;;;;;;23.72;39.13;96863.56;4937499;28;20368;-68
2022/04/14 08:39:42;;;;;;;11.23;4.03;;;;;;;24.17;37.89;96865.25;4942788;28;20275;-68
2022/04/14 08:42:15;;;;;;;13.23;4.35;;;;;;;23.79;39.63;96865.38;4938162;28;20077;-69
2022/04/14 08:44:46;;;;;;;12.65;4.25;;;;;;;24.16;39.59;96865.72;4944792;28;20042;-68
2022/04/14 08:47:15;;;;;;;10.13;4.30;;;;;;;25.03;37.54;96874.56;4938407;28;20075;-71
2022/04/14 08:49:43;;;;;;;9.13;4.32;;;;;;;26.60;35.38;96869.34;4954022;28;20043;-68
2022/04/14 08:52:14;;;;;;;13.32;4.18;;;;;;;26.42;33.69;96868.09;4939910;28;20043;-69
2022/04/14 08:54:40;;;;;;;19.25;4.35;;;;;;;24.23;38.72;96868.25;4944715;28;20146;-69
2022/04/14 08:57:09;;;;;;;6.68;2.83;;;;;;;25.34;36.47;96866.97;4938620;28;20040;-69
2022/04/14 08:59:35;;;;;;;9.60;3.05;;;;;;;25.29;35.38;96863.97;4944579;28;20054;-68
2022/04/14 09:02:04;;;;;;;7.88;2.78;;;;;;;26.52;33.94;96858.41;4948764;28;20047;-69
2022/04/14 09:04:30;;;;;;;10.15;3.03;;;;;;;27.05;33.16;96860.03;4956014;28;20098;-69
2022/04/14 09:06:56;;;;;;;13.30;3.10;;;;;;;25.40;36.03;96864.31;4955353;28;20070;-68
2022/04/14 09:09:23;;;;;;;10.75;2.83;;;;;;;25.21;36.33;96871.06;4938373;28;20587;-68
2022/04/14 09:11:49;;;;;;;10.60;3.20;;;;;;;25.22;36.20;96876.22;4942693;28;20101;-69
2022/04/14 09:14:15;;;;;;;7.10;2.40;;;;;;;25.88;35.37;96866.78;4938171;28;20559;-68
2022/04/14 09:16:41;;;;;;;9.32;2.60;;;;;;;26.02;35.62;96869.03;4942721;28;20043;-68
2022/04/14 09:19:06;;;;;;;10.23;2.95;;;;;;;26.90;34.55;96859.13;4938067;28;20065;-68
2022/04/14 09:21:32;;;;;;;10.18;2.90;;;;;;;26.84;34.51;96859.00;4942933;28;20050;-69
2022/04/14 09:23:58;;;;;;;10.07;2.83;;;;;;;27.41;32.46;96863.22;4944155;28;20044;-68
2022/04/14 09:26:23;;;;;;;9.77;3.88;;;;;;;26.72;33.16;96865.56;4938078;28;20526;-68
2022/04/14 09:29:03;;;;;;;9.52;2.25;;;;;;;26.86;33.72;96853.69;4943837;28;20455;-68
2022/04/14 09:31:30;;;;;;;10.00;2.92;;;;;;;25.98;34.72;96862.75;4955640;28;20039;-68
2022/04/14 09:33:55;;;;;;;10.07;2.72;;;;;;;26.43;34.12;96857.63;4927097;28;20102;-69
2022/04/14 09:36:23;;;;;;;12.85;3.05;;;;;;;26.85;33.01;96854.19;4937836;28;20047;-69
2022/04/14 09:38:56;;;;;;;12.45;3.05;;;;;;;26.87;32.83;96857.28;4943456;28;20074;-67
2022/04/14 09:41:38;;;;;;;7.82;2.67;;;;;;;26.43;33.54;96854.81;4941547;28;20941;-68
2022/04/14 09:44:12;;;;;;;11.52;2.80;;;;;;;26.24;33.80;96843.59;4943057;28;20050;-70
2022/04/14 09:46:42;;;;;;;9.77;2.97;;;;;;;26.53;35.04;96850.75;4943301;28;20039;-68
2022/04/14 09:49:09;;;;;;;12.57;3.28;;;;;;;26.26;33.88;96845.94;4937198;28;20392;-68
2022/04/14 09:51:44;;;;;;;12.05;2.92;;;;;;;25.41;36.38;96845.47;4941512;28;20440;-69
2022/04/14 09:54:18;;;;;;;14.57;3.83;;;;;;;25.35;36.27;96840.50;4937523;28;20035;-69
2022/04/14 09:56:52;;;;;;;8.98;3.17;;;;;;;25.13;37.08;96845.34;4941613;28;20050;-68
2022/04/14 09:59:25;;;;;;;10.75;3.25;;;;;;;24.90;37.28;96841.84;4937506;28;20186;-68
2022/04/14 10:02:13;;;;;;;10.20;3.05;;;;;;;24.45;37.70;96845.88;4941210;29;20060;-68
2022/04/14 10:07:08;;;;;;;12.63;3.80;;;;;;;24.20;39.07;96844.78;4965416;28;19928;-67
2022/04/14 10:09:35;;;;;;;12.60;3.80;;;;;;;23.86;41.47;96834.38;4962670;28;20049;-66
2022/04/14 10:12:02;;;;;;;14.40;3.90;;;;;;;23.53;42.21;96831.84;4961935;28;20042;-66
2022/04/14 10:14:28;;;;;;;14.43;4.13;;;;;;;23.98;40.09;96829.97;4959661;28;20043;-66
2022/04/14 10:16:54;;;;;;;13.07;4.97;;;;;;;23.62;41.05;96831.16;4961310;28;20057;-65
2022/04/14 10:19:20;;;;;;;12.10;4.45;;;;;;;24.15;40.01;96830.59;4955317;28;20129;-66
2022/04/14 10:21:46;;;;;;;9.85;4.25;;;;;;;24.26;40.22;96821.81;4959815;28;20094;-65
2022/04/14 10:24:12;;;;;;;9.32;4.13;;;;;;;24.71;40.13;96821.34;4955265;28;20039;-65
2022/04/14 10:26:38;;;;;;;14.60;4.05;;;;;;;24.35;39.78;96828.25;4957800;28;20469;-65
2022/04/14 10:29:06;;;;;;;9.70;4.05;;;;;;;23.63;41.70;96821.56;4957743;28;20204;-67
2022/04/14 10:31:35;;;;;;;8.52;3.85;;;;;;;23.66;42.10;96818.63;4961058;28;20931;-66
2022/04/14 10:34:04;;;;;;;9.38;4.03;;;;;;;23.21;43.21;96822.50;4960847;28;20043;-66
2022/04/14 10:36:32;;;;;;;18.48;4.93;;;;;;;23.48;43.43;96813.63;4959935;28;20046;-67
2022/04/14 10:38:59;;;;;;;14.32;4.40;;;;;;;23.33;42.71;96815.34;4960640;28;20134;-66
2022/04/14 10:41:30;;;;;;;11.82;3.97;;;;;;;23.63;42.60;96811.13;4956702;28;20140;-67
2022/04/14 10:44:00;;;;;;;10.63;3.65;;;;;;;23.49;42.52;96811.63;4961191;28;20068;-66
2022/04/14 10:46:36;;;;;;;12.57;3.78;;;;;;;24.23;41.24;96813.06;4955989;28;20047;-66
2022/04/14 10:49:13;;;;;;;9.23;3.72;;;;;;;24.42;40.03;96811.19;4961195;28;20047;-67
2022/04/14 10:51:39;;;;;;;20.15;4.70;;;;;;;24.63;39.90;96810.88;4968859;28;20062;-67
2022/04/14 10:54:11;;;;;;;11.52;5.28;;;;;;;24.87;39.76;96799.97;4964392;28;20049;-67
2022/04/14 10:56:37;;;;;;;12.10;4.47;;;;;;;24.65;39.53;96798.00;4984534;28;20042;-66
2022/04/14 10:59:12;;;;;;;12.85;4.55;;;;;;;24.21;40.94;96792.38;4979254;28;20047;-65
2022/04/14 11:01:47;;;;;;;21.13;4.07;;;;;;;23.62;42.55;96790.03;4976882;28;20061;-65
2022/04/14 11:04:26;;;;;;;15.45;4.65;;;;;;;23.36;42.05;96786.50;4955750;28;20049;-66
2022/04/14 11:07:12;;;;;;;13.70;4.23;;;;;;;22.93;43.85;96789.88;4960618;28;20058;-66
2022/04/14 11:09:44;;;;;;;11.68;4.47;;;;;;;22.94;43.48;96781.03;4959529;28;20070;-67
2022/04/14 11:12:22;;;;;;;16.92;4.15;;;;;;;22.57;44.76;96783.34;4956090;28;20045;-67
2022/04/14 11:14:53;;;;;;;10.77;4.15;;;;;;;22.12;46.19;96789.81;4976159;28;20133;-65
2022/04/14 11:17:30;;;;;;;10.13;4.47;;;;;;;22.21;45.37;96787.16;4955528;28;20182;-66
2022/04/14 11:20:11;;;;;;;11.00;4.57;;;;;;;21.90;45.26;96793.19;4961735;28;20038;-66
2022/04/14 11:23:07;;;;;;;13.70;4.53;;;;;;;21.43;47.54;96799.16;4960121;28;20495;-66
2022/04/14 11:25:48;;;;;;;12.63;4.75;;;;;;;;;;4962028;28;20130;-68
2022/04/14 11:28:19;;;;;;;17.95;4.30;;;;;;;21.50;47.05;96796.25;4958496;28;20071;-66
2022/04/14 11:30:45;;;;;;;9.80;4.97;;;;;;;22.10;46.35;96797.84;4962713;28;20094;-66
2022/04/14 11:33:21;;;;;;;10.68;4.60;;;;;;;21.83;46.90;96789.81;4972093;28;20038;-66